createdAt,value
2023-08-20T00:02:24.475Z,18.34
2023-08-20T00:04:52.970Z,18.36
2023-08-20T00:07:21.187Z,18.22
2023-08-20T00:09:49.160Z,18.22
2023-08-20T00:12:17.076Z,18.28
2023-08-20T00:15:00.023Z,18.27
2023-08-20T00:17:28.562Z,18.20
2023-08-20T00:19:56.827Z,18.24
2023-08-20T00:22:26.141Z,18.22
2023-08-20T00:24:58.043Z,18.09
2023-08-20T00:27:25.972Z,17.97
2023-08-20T00:29:54.190Z,17.62
2023-08-20T00:32:22.148Z,17.39
2023-08-20T00:34:50.290Z,17.70
2023-08-20T00:37:18.909Z,17.76
2023-08-20T00:39:46.887Z,17.61
2023-08-20T00:42:16.705Z,17.45
2023-08-20T00:44:50.678Z,17.60
2023-08-20T00:47:19.874Z,17.57
2023-08-20T00:49:49.336Z,17.56
2023-08-20T00:52:21.466Z,17.64
2023-08-20T00:54:51.263Z,17.62
2023-08-20T00:57:20.767Z,17.70
2023-08-20T00:59:52.481Z,17.68
2023-08-20T01:02:22.142Z,17.65
2023-08-20T01:04:50.902Z,17.66
2023-08-20T01:07:55.566Z,17.70
2023-08-20T01:10:32.514Z,17.71
2023-08-20T01:13:02.030Z,17.75
2023-08-20T01:15:30.066Z,17.67
2023-08-20T01:17:58.042Z,17.58
2023-08-20T01:20:32.336Z,17.61
2023-08-20T01:23:26.552Z,17.62
2023-08-20T01:26:13.612Z,17.01
2023-08-20T01:28:42.342Z,16.64
2023-08-20T01:31:13.177Z,16.65
2023-08-20T01:33:41.810Z,16.73
2023-08-20T01:36:12.914Z,16.82
2023-08-20T01:38:43.043Z,16.92
2023-08-20T01:41:11.274Z,17.05
2023-08-20T01:43:39.208Z,17.04
2023-08-20T01:46:08.209Z,17.16
2023-08-20T01:48:36.172Z,17.11
2023-08-20T01:51:04.070Z,17.12
2023-08-20T01:53:32.037Z,17.04
2023-08-20T01:56:02.564Z,17.13
2023-08-20T01:58:30.539Z,17.16
2023-08-20T02:00:59.475Z,17.23
2023-08-20T02:03:27.585Z,17.16
2023-08-20T02:05:55.643Z,16.94
2023-08-20T02:08:23.520Z,17.13
2023-08-20T02:10:51.450Z,17.11
2023-08-20T02:13:19.419Z,16.76
2023-08-20T02:15:47.289Z,16.37
2023-08-20T02:18:16.813Z,16.32
2023-08-20T02:20:44.945Z,16.63
2023-08-20T02:23:13.069Z,16.67
2023-08-20T02:25:40.967Z,16.78
2023-08-20T02:28:08.874Z,16.78
2023-08-20T02:30:48.089Z,16.86
2023-08-20T02:33:16.377Z,16.85
2023-08-20T02:35:44.382Z,16.88
2023-08-20T02:38:12.440Z,16.86
2023-08-20T02:40:44.745Z,16.84
2023-08-20T02:43:13.840Z,16.87
2023-08-20T02:45:43.702Z,16.72
2023-08-20T02:50:06.204Z,16.63
2023-08-20T02:52:34.631Z,16.66
2023-08-20T02:55:02.521Z,16.68
2023-08-20T02:57:30.622Z,16.61
2023-08-20T02:59:58.670Z,16.60
2023-08-20T03:02:26.678Z,16.65
2023-08-20T03:04:57.190Z,16.66
2023-08-20T03:07:25.204Z,16.46
2023-08-20T03:09:53.153Z,16.62
2023-08-20T03:12:21.174Z,16.63
2023-08-20T03:14:49.105Z,16.48
2023-08-20T03:17:17.082Z,16.54
2023-08-20T03:19:59.890Z,16.19
2023-08-20T03:22:28.546Z,15.89
2023-08-20T03:24:56.877Z,16.14
2023-08-20T03:27:25.138Z,16.08
2023-08-20T03:29:53.513Z,16.01
2023-08-20T03:32:21.834Z,16.03
2023-08-20T03:34:51.623Z,15.74
2023-08-20T03:37:21.033Z,15.92
2023-08-20T03:39:51.458Z,15.93
2023-08-20T03:42:19.554Z,15.66
2023-08-20T03:44:47.550Z,15.41
2023-08-20T03:47:16.958Z,15.59
2023-08-20T03:49:44.992Z,15.82
2023-08-20T03:52:12.900Z,15.80
2023-08-20T03:54:40.870Z,15.89
2023-08-20T03:57:08.865Z,15.84
2023-08-20T03:59:36.836Z,15.94
2023-08-20T04:02:05.012Z,15.88
2023-08-20T04:04:33.176Z,15.96
2023-08-20T04:07:01.094Z,16.01
2023-08-20T04:09:29.191Z,16.11
2023-08-20T04:11:57.200Z,16.22
2023-08-20T04:14:25.362Z,16.19
2023-08-20T04:16:54.473Z,16.21
2023-08-20T04:19:22.408Z,16.17
2023-08-20T04:21:50.470Z,16.36
2023-08-20T04:24:18.613Z,16.43
2023-08-20T04:26:46.766Z,16.55
2023-08-20T04:29:17.298Z,16.58
2023-08-20T04:31:46.502Z,16.73
2023-08-20T04:34:14.430Z,16.51
2023-08-20T04:36:47.588Z,16.48
2023-08-20T04:39:16.019Z,16.45
2023-08-20T05:03:56.183Z,15.77
2023-08-20T05:06:24.587Z,15.97
2023-08-20T05:08:52.763Z,16.21
2023-08-20T05:11:22.299Z,16.33
2023-08-20T05:13:51.347Z,16.59
2023-08-20T05:16:20.397Z,16.81
2023-08-20T05:18:48.631Z,16.90
2023-08-20T05:21:16.767Z,17.13
2023-08-20T05:23:44.933Z,17.19
2023-08-20T05:26:13.498Z,17.43
2023-08-20T05:28:41.552Z,17.61
2023-08-20T05:31:09.718Z,17.64
2023-08-20T05:33:37.949Z,17.75
2023-08-20T05:36:06.333Z,17.92
2023-08-20T05:38:34.728Z,18.19
2023-08-20T05:41:03.000Z,18.40
2023-08-20T05:43:31.066Z,18.47
2023-08-20T05:45:59.183Z,18.65
2023-08-20T05:48:27.575Z,18.84
2023-08-20T05:50:56.037Z,18.99
2023-08-20T05:53:24.515Z,19.23
2023-08-20T05:55:53.096Z,19.27
2023-08-20T05:58:21.561Z,19.54
2023-08-20T06:00:49.801Z,19.87
2023-08-20T06:03:17.835Z,20.02
2023-08-20T06:05:45.896Z,20.35
2023-08-20T06:08:13.874Z,20.67
2023-08-20T06:10:41.859Z,21.19
2023-08-20T06:13:09.818Z,22.57
2023-08-20T06:15:38.031Z,24.34
2023-08-20T06:18:06.220Z,26.00
2023-08-20T06:20:34.398Z,27.78
2023-08-20T06:23:02.375Z,29.29
2023-08-20T06:25:30.595Z,29.84
2023-08-20T06:27:58.411Z,30.94
2023-08-20T06:30:26.320Z,32.06
2023-08-20T06:32:54.486Z,32.68
2023-08-20T06:35:22.487Z,33.63
2023-08-20T06:37:50.549Z,34.53
2023-08-20T06:40:18.634Z,35.33
2023-08-20T06:42:46.906Z,36.03
2023-08-20T06:45:15.021Z,36.26
2023-08-20T06:47:42.824Z,36.54
2023-08-20T06:50:11.232Z,36.93
2023-08-20T06:52:39.573Z,36.94
2023-08-20T06:55:08.095Z,37.24
2023-08-20T06:57:36.990Z,37.93
2023-08-20T07:00:06.692Z,38.48
2023-08-20T07:02:35.301Z,38.46
2023-08-20T07:05:03.951Z,38.73
2023-08-20T07:07:32.104Z,39.62
2023-08-20T07:10:00.585Z,38.99
2023-08-20T07:12:29.169Z,36.70
2023-08-20T07:14:57.770Z,34.77
2023-08-20T07:17:26.496Z,33.11
2023-08-20T07:19:55.207Z,31.94
2023-08-20T07:22:24.064Z,31.00
2023-08-20T07:24:52.361Z,30.35
2023-08-20T07:27:20.948Z,29.72
2023-08-20T07:29:49.567Z,29.54
2023-08-20T07:32:18.484Z,31.76
2023-08-20T07:34:47.215Z,32.39
2023-08-20T07:37:15.713Z,33.76
2023-08-20T07:39:44.502Z,34.69
2023-08-20T07:42:13.705Z,33.96
2023-08-20T07:44:42.438Z,34.16
2023-08-20T07:47:11.181Z,33.85
2023-08-20T07:49:39.807Z,32.98
2023-08-20T07:52:08.426Z,32.38
2023-08-20T07:54:39.572Z,31.94
2023-08-20T07:57:08.216Z,31.30
2023-08-20T07:59:37.165Z,30.20
2023-08-20T08:02:06.008Z,29.53
2023-08-20T08:04:35.872Z,29.62
2023-08-20T08:07:04.677Z,29.58
2023-08-20T08:09:33.954Z,29.62
2023-08-20T08:12:03.570Z,29.56
2023-08-20T08:14:32.376Z,29.60
2023-08-20T08:17:01.203Z,29.52
2023-08-20T08:19:29.835Z,29.34
2023-08-20T08:21:58.129Z,29.14
2023-08-20T08:24:26.685Z,29.05
2023-08-20T08:26:55.203Z,29.07
2023-08-20T08:29:23.450Z,29.20
2023-08-20T08:31:51.310Z,29.31
2023-08-20T08:34:19.883Z,29.35
2023-08-20T08:36:48.574Z,29.28
2023-08-20T08:39:17.285Z,29.35
2023-08-20T08:41:52.465Z,29.54
2023-08-20T08:44:22.895Z,29.49
2023-08-20T08:46:52.635Z,29.56
2023-08-20T08:49:21.264Z,29.83
2023-08-20T08:51:49.973Z,29.73
2023-08-20T08:54:18.860Z,30.14
2023-08-20T08:56:48.180Z,30.70
2023-08-20T08:59:16.854Z,31.00
2023-08-20T09:01:45.576Z,31.31
2023-08-20T09:04:14.162Z,31.41
2023-08-20T09:06:50.237Z,31.14
2023-08-20T09:09:20.824Z,31.08
2023-08-20T09:11:50.301Z,31.13
2023-08-20T09:14:31.760Z,31.37
2023-08-20T09:17:02.217Z,31.50
2023-08-20T09:19:36.633Z,31.41
2023-08-20T09:22:05.576Z,30.77
2023-08-20T09:24:40.166Z,30.37
2023-08-20T09:27:08.795Z,30.32
2023-08-20T09:29:53.210Z,30.28
2023-08-20T09:32:24.209Z,30.20
2023-08-20T09:34:54.563Z,30.13
2023-08-20T09:37:24.771Z,29.95
2023-08-20T09:39:53.710Z,30.06
2023-08-20T09:42:22.344Z,30.01
2023-08-20T09:44:52.421Z,29.91
2023-08-20T09:47:26.043Z,29.95
2023-08-20T09:49:55.975Z,30.09
2023-08-20T09:52:40.370Z,30.18
2023-08-20T09:55:18.302Z,30.22
2023-08-20T09:57:49.788Z,30.36
2023-08-20T10:00:18.886Z,30.22
2023-08-20T10:02:48.328Z,30.08
2023-08-20T10:05:17.110Z,29.99
2023-08-20T10:07:47.716Z,30.20
2023-08-20T10:10:18.149Z,30.29
2023-08-20T10:12:47.135Z,30.30
2023-08-20T10:15:17.177Z,30.36
2023-08-20T10:18:04.923Z,30.18
2023-08-20T10:20:33.647Z,30.27
2023-08-20T10:23:05.010Z,30.36
2023-08-20T10:25:44.236Z,30.44
2023-08-20T10:28:24.451Z,30.37
2023-08-20T10:31:14.291Z,30.49
2023-08-20T10:33:48.603Z,30.53
2023-08-20T10:36:19.954Z,30.26
2023-08-20T10:38:48.806Z,30.08
2023-08-20T10:41:20.335Z,30.16
2023-08-20T10:43:50.280Z,30.25
2023-08-20T10:46:20.200Z,30.30
2023-08-20T10:48:51.778Z,30.18
2023-08-20T10:51:26.019Z,30.15
2023-08-20T10:54:09.423Z,30.29
2023-08-20T10:56:44.871Z,30.37
2023-08-20T10:59:18.802Z,30.29
2023-08-20T11:01:57.215Z,30.31
2023-08-20T11:04:30.022Z,30.35
2023-08-20T11:06:59.461Z,30.49
2023-08-20T11:09:30.994Z,30.59
2023-08-20T11:12:00.760Z,30.66
2023-08-20T11:14:29.234Z,30.76
2023-08-20T11:16:58.385Z,30.75
2023-08-20T11:19:27.145Z,30.86
2023-08-20T11:21:56.665Z,30.93
2023-08-20T11:24:25.590Z,30.99
2023-08-20T11:26:56.878Z,30.96
2023-08-20T11:29:27.844Z,30.79
2023-08-20T11:31:56.761Z,30.81
2023-08-20T11:34:26.356Z,30.74
2023-08-20T11:36:54.981Z,30.88
2023-08-20T11:39:24.259Z,30.96
2023-08-20T11:41:53.470Z,30.90
2023-08-20T11:44:23.548Z,30.86
2023-08-20T11:46:52.393Z,30.71
2023-08-20T11:49:32.672Z,30.97
2023-08-20T11:52:01.216Z,30.88
2023-08-20T11:54:33.784Z,30.98
2023-08-20T11:57:06.729Z,30.91
2023-08-20T11:59:35.953Z,30.96
2023-08-20T12:02:05.208Z,31.08
2023-08-20T12:04:33.990Z,31.09
2023-08-20T12:07:06.646Z,31.12
2023-08-20T12:09:36.016Z,30.97
2023-08-20T12:12:07.088Z,30.97
2023-08-20T12:14:36.621Z,31.04
2023-08-20T12:17:05.571Z,31.10
2023-08-20T12:19:34.125Z,31.14
2023-08-20T12:22:03.322Z,30.99
2023-08-20T12:24:31.998Z,31.03
2023-08-20T12:27:00.599Z,31.04
2023-08-20T12:29:30.099Z,30.89
2023-08-20T12:31:59.216Z,30.89
2023-08-20T12:34:27.852Z,30.98
2023-08-20T12:36:56.544Z,31.02
2023-08-20T12:39:25.289Z,30.99
2023-08-20T12:41:53.877Z,30.95
2023-08-20T12:44:22.514Z,30.94
2023-08-20T12:46:51.520Z,30.97
2023-08-20T12:49:20.263Z,31.13
2023-08-20T12:51:49.728Z,31.03
2023-08-20T12:54:18.396Z,31.03
2023-08-20T12:56:47.125Z,31.17
2023-08-20T12:59:15.794Z,31.20
2023-08-20T13:01:44.267Z,31.12
2023-08-20T13:04:13.674Z,31.12
2023-08-20T13:06:43.107Z,31.07
2023-08-20T13:09:12.212Z,31.20
2023-08-20T13:11:41.187Z,31.22
2023-08-20T13:14:10.154Z,31.24
2023-08-20T13:16:39.306Z,31.27
2023-08-20T13:19:08.532Z,31.22
2023-08-20T13:21:37.239Z,31.16
2023-08-20T13:24:06.486Z,31.05
2023-08-20T13:26:35.188Z,31.14
2023-08-20T13:29:03.688Z,31.09
2023-08-20T13:31:32.540Z,30.99
2023-08-20T13:34:01.177Z,31.13
2023-08-20T13:36:36.333Z,31.11
2023-08-20T13:39:06.593Z,30.97
2023-08-20T13:41:35.250Z,30.87
2023-08-20T13:44:04.046Z,30.90
2023-08-20T13:46:32.723Z,30.86
2023-08-20T13:49:01.410Z,30.89
2023-08-20T13:51:30.523Z,30.65
2023-08-20T13:53:59.455Z,30.92
2023-08-20T13:56:28.409Z,30.94
2023-08-20T13:58:57.117Z,30.99
2023-08-20T14:01:25.766Z,30.91
2023-08-20T14:03:55.334Z,30.93
2023-08-20T14:06:24.214Z,30.93
2023-08-20T14:08:52.846Z,30.97
2023-08-20T14:11:21.591Z,30.95
2023-08-20T14:13:50.692Z,30.96
2023-08-20T14:16:19.451Z,30.89
2023-08-20T14:18:48.174Z,30.84
2023-08-20T14:21:16.862Z,30.74
2023-08-20T14:23:45.670Z,30.71
2023-08-20T14:26:14.398Z,30.68
2023-08-20T14:28:45.035Z,30.65
2023-08-20T14:31:14.151Z,30.64
2023-08-20T14:33:42.767Z,30.58
2023-08-20T14:36:11.423Z,30.51
2023-08-20T14:38:40.148Z,30.33
2023-08-20T14:41:08.670Z,30.43
2023-08-20T14:43:37.523Z,30.40
2023-08-20T14:46:06.077Z,30.32
2023-08-20T14:48:36.668Z,30.38
2023-08-20T14:51:05.310Z,30.25
2023-08-20T14:53:34.076Z,30.17
2023-08-20T14:56:02.654Z,30.15
2023-08-20T14:58:33.053Z,30.19
2023-08-20T15:01:02.212Z,30.16
2023-08-20T15:03:31.880Z,30.05
2023-08-20T15:06:00.380Z,30.12
2023-08-20T15:08:29.060Z,30.05
2023-08-20T15:11:00.252Z,29.98
2023-08-20T15:13:29.237Z,30.01
2023-08-20T15:15:58.191Z,29.98
2023-08-20T15:18:27.118Z,29.98
2023-08-20T15:20:59.559Z,29.98
2023-08-20T15:23:29.585Z,29.97
2023-08-20T15:25:58.489Z,29.91
2023-08-20T15:28:27.707Z,29.95
2023-08-20T15:30:56.560Z,29.94
2023-08-20T15:33:25.186Z,29.87
2023-08-20T15:35:54.110Z,29.75
2023-08-20T15:38:22.795Z,29.81
2023-08-20T15:40:51.479Z,29.73
2023-08-20T15:43:20.233Z,29.76
2023-08-20T15:45:49.742Z,29.78
2023-08-20T15:48:18.714Z,29.59
2023-08-20T15:50:47.383Z,29.60
2023-08-20T15:53:15.985Z,29.46
2023-08-20T15:55:44.666Z,29.39
2023-08-20T15:58:13.124Z,29.29
2023-08-20T16:00:41.794Z,29.40
2023-08-20T16:03:12.718Z,29.37
2023-08-20T16:05:43.345Z,29.34
2023-08-20T16:08:12.151Z,29.31
2023-08-20T16:10:40.950Z,29.30
2023-08-20T16:13:09.588Z,29.25
2023-08-20T16:15:38.273Z,29.21
2023-08-20T16:18:07.036Z,29.16
2023-08-20T16:20:38.064Z,29.10
2023-08-20T16:23:06.968Z,28.91
2023-08-20T16:25:37.863Z,28.86
2023-08-20T16:28:06.805Z,28.83
2023-08-20T16:30:35.332Z,28.81
2023-08-20T16:33:04.345Z,28.79
2023-08-20T16:35:34.397Z,28.79
2023-08-20T16:38:04.341Z,28.65
2023-08-20T16:40:32.941Z,28.69
2023-08-20T16:43:03.181Z,28.55
2023-08-20T16:45:32.253Z,28.47
2023-08-20T16:48:01.153Z,28.58
2023-08-20T16:50:29.647Z,28.59
2023-08-20T16:53:01.019Z,28.46
2023-08-20T16:55:31.251Z,28.25
2023-08-20T16:58:00.616Z,28.22
2023-08-20T17:00:29.148Z,28.25
2023-08-20T17:02:57.994Z,28.19
2023-08-20T17:05:26.862Z,28.01
2023-08-20T17:07:56.375Z,28.05
2023-08-20T17:10:25.585Z,28.00
2023-08-20T17:12:54.341Z,27.93
2023-08-20T17:15:23.479Z,27.90
2023-08-20T17:17:52.137Z,27.77
2023-08-20T17:20:19.991Z,27.66
2023-08-20T17:22:48.304Z,27.58
2023-08-20T17:25:17.662Z,27.35
2023-08-20T17:27:45.892Z,27.27
2023-08-20T17:30:14.836Z,27.26
2023-08-20T17:32:43.475Z,27.17
2023-08-20T17:35:12.416Z,27.08
2023-08-20T17:37:41.201Z,26.88
2023-08-20T17:40:14.354Z,26.81
2023-08-20T17:42:43.010Z,26.70
2023-08-20T17:45:11.823Z,26.58
2023-08-20T17:47:40.406Z,26.53
2023-08-20T17:50:09.716Z,26.39
2023-08-20T17:52:38.734Z,26.28
2023-08-20T17:55:09.017Z,26.21
2023-08-20T17:57:38.876Z,26.16
2023-08-20T18:00:10.303Z,26.02
2023-08-20T18:02:41.935Z,25.98
2023-08-20T18:05:13.024Z,25.81
2023-08-20T18:07:41.691Z,25.83
2023-08-20T18:10:10.676Z,25.82
2023-08-20T18:12:40.132Z,25.78
2023-08-20T18:15:09.296Z,25.70
2023-08-20T18:17:38.015Z,25.57
2023-08-20T18:20:07.502Z,25.58
2023-08-20T18:22:36.499Z,25.52
2023-08-20T18:25:06.331Z,25.52
2023-08-20T18:27:35.208Z,25.51
2023-08-20T18:30:07.600Z,25.42
2023-08-20T18:32:37.012Z,25.36
2023-08-20T18:35:06.990Z,25.30
2023-08-20T18:37:35.512Z,25.25
2023-08-20T18:40:05.749Z,25.16
2023-08-20T18:42:35.590Z,25.16
2023-08-20T18:45:04.864Z,25.14
2023-08-20T18:47:33.757Z,25.09
2023-08-20T18:50:02.656Z,25.04
2023-08-20T18:52:31.310Z,25.03
2023-08-20T18:54:59.945Z,24.84
2023-08-20T18:57:28.729Z,24.75
2023-08-20T18:59:57.630Z,24.68
2023-08-20T19:02:26.605Z,24.64
2023-08-20T19:04:56.280Z,24.63
2023-08-20T19:07:27.795Z,24.63
2023-08-20T19:10:00.392Z,24.55
2023-08-20T19:12:29.078Z,24.54
2023-08-20T19:14:58.029Z,24.47
2023-08-20T19:17:26.844Z,24.49
2023-08-20T19:19:55.360Z,24.41
2023-08-20T19:22:25.170Z,24.38
2023-08-20T19:24:53.882Z,24.13
2023-08-20T19:27:22.411Z,23.91
2023-08-20T19:29:51.394Z,24.02
2023-08-20T19:32:20.016Z,23.97
2023-08-20T19:34:48.722Z,23.83
2023-08-20T19:37:17.514Z,23.80
2023-08-20T19:39:46.804Z,23.67
2023-08-20T19:42:15.606Z,23.59
2023-08-20T19:44:44.419Z,23.36
2023-08-20T19:47:12.951Z,23.41
2023-08-20T19:49:41.587Z,23.34
2023-08-20T19:52:10.373Z,23.34
2023-08-20T19:54:39.080Z,23.29
2023-08-20T19:57:07.635Z,23.27
2023-08-20T19:59:36.145Z,23.14
2023-08-20T20:02:04.881Z,23.03
2023-08-20T20:04:33.894Z,23.03
2023-08-20T20:07:20.476Z,22.97
2023-08-20T20:09:51.978Z,22.89
2023-08-20T20:12:23.042Z,22.76
2023-08-20T20:14:51.762Z,22.68
2023-08-20T20:17:20.487Z,22.68
2023-08-20T20:19:51.095Z,22.61
2023-08-20T20:22:19.768Z,22.56
2023-08-20T20:24:48.887Z,22.45
2023-08-20T20:27:17.665Z,22.32
2023-08-20T20:29:46.590Z,22.17
2023-08-20T20:32:15.397Z,21.85
2023-08-20T20:34:43.956Z,21.93
2023-08-20T20:37:12.546Z,22.03
2023-08-20T20:39:40.769Z,22.05
2023-08-20T20:42:11.301Z,21.94
2023-08-20T20:44:39.552Z,21.97
2023-08-20T20:47:07.841Z,22.00
2023-08-20T20:49:36.812Z,21.94
2023-08-20T20:52:06.326Z,21.78
2023-08-20T20:54:35.045Z,21.85
2023-08-20T20:57:04.027Z,21.73
2023-08-20T20:59:32.152Z,21.78
2023-08-20T21:02:00.929Z,21.55
2023-08-20T21:04:30.690Z,21.49
2023-08-20T21:06:59.528Z,21.37
2023-08-20T21:09:28.022Z,21.40
2023-08-20T21:11:56.681Z,21.16
2023-08-20T21:14:25.343Z,21.27
2023-08-20T21:16:53.617Z,21.32
2023-08-20T21:19:22.318Z,21.31
2023-08-20T21:21:51.063Z,21.19
2023-08-20T21:24:19.638Z,21.22
2023-08-20T21:26:47.874Z,21.23
2023-08-20T21:29:16.002Z,21.06
2023-08-20T21:31:44.312Z,21.06
2023-08-20T21:34:12.889Z,21.10
2023-08-20T21:36:41.491Z,21.11
2023-08-20T21:39:09.370Z,21.10
2023-08-20T21:41:37.731Z,21.14
2023-08-20T21:44:06.348Z,21.13
2023-08-20T21:46:35.466Z,21.04
2023-08-20T21:49:04.147Z,21.07
2023-08-20T21:51:32.638Z,21.06
2023-08-20T21:54:00.795Z,21.00
2023-08-20T21:56:29.351Z,20.96
2023-08-20T21:58:57.423Z,20.85
2023-08-20T22:01:25.409Z,20.87
2023-08-20T22:03:53.675Z,20.84
2023-08-20T22:06:21.682Z,20.82
2023-08-20T22:08:49.585Z,20.74
2023-08-20T22:11:17.602Z,20.59
2023-08-20T22:13:45.891Z,20.60
2023-08-20T22:16:14.359Z,20.56
2023-08-20T22:18:42.298Z,20.58
2023-08-20T22:21:10.858Z,20.49
2023-08-20T22:23:38.944Z,20.30
2023-08-20T22:26:06.989Z,20.22
2023-08-20T22:28:35.118Z,20.22
2023-08-20T22:31:04.626Z,20.02
2023-08-20T22:33:32.817Z,20.05
2023-08-20T22:36:00.905Z,20.02
2023-08-20T22:38:29.094Z,19.78
2023-08-20T22:40:57.393Z,19.78
2023-08-20T22:43:25.616Z,19.86
2023-08-20T22:45:54.025Z,19.68
2023-08-20T22:48:22.331Z,19.50
2023-08-20T22:50:51.014Z,19.63
2023-08-20T22:53:18.973Z,19.59
2023-08-20T22:55:53.925Z,19.57
2023-08-20T22:58:22.066Z,19.68
2023-08-20T23:00:50.296Z,19.61
2023-08-20T23:03:18.771Z,19.66
2023-08-20T23:05:46.901Z,19.61
2023-08-20T23:08:15.160Z,19.49
2023-08-20T23:10:43.416Z,19.58
2023-08-20T23:13:11.402Z,19.64
2023-08-20T23:15:40.109Z,19.61
2023-08-20T23:18:09.584Z,19.72
2023-08-20T23:20:37.726Z,19.56
2023-08-20T23:23:05.732Z,19.62
2023-08-20T23:25:33.784Z,19.46
2023-08-20T23:28:01.856Z,19.44
2023-08-20T23:30:29.752Z,19.43
2023-08-20T23:32:58.170Z,19.42
2023-08-20T23:35:26.057Z,19.42
2023-08-20T23:37:54.006Z,19.42
2023-08-20T23:40:22.102Z,19.09
2023-08-20T23:42:51.558Z,19.18
2023-08-20T23:45:19.497Z,19.22
2023-08-20T23:47:47.532Z,19.25
2023-08-20T23:50:15.615Z,19.21
2023-08-20T23:52:43.689Z,19.28
2023-08-20T23:55:11.675Z,19.15
2023-08-20T23:57:41.195Z,19.00
